sensor_id;sensor_type;location;lat;lon;timestamp;temperature;humidity
57088;DHT22;42965;52.846;6.614;2023-06-14T00:01:27;16.60;71.00
57088;DHT22;42965;52.846;6.614;2023-06-14T00:03:55;16.50;71.40
57088;DHT22;42965;52.846;6.614;2023-06-14T00:06:21;16.40;71.70
57088;DHT22;42965;52.846;6.614;2023-06-14T00:08:57;16.40;71.90
57088;DHT22;42965;52.846;6.614;2023-06-14T00:11:26;16.40;72.10
57088;DHT22;42965;52.846;6.614;2023-06-14T00:13:56;16.30;72.60
57088;DHT22;42965;52.846;6.614;2023-06-14T00:16:22;16.30;72.90
57088;DHT22;42965;52.846;6.614;2023-06-14T00:18:53;16.30;73.60
57088;DHT22;42965;52.846;6.614;2023-06-14T00:21:21;16.20;73.90
57088;DHT22;42965;52.846;6.614;2023-06-14T00:23:49;16.20;74.90
57088;DHT22;42965;52.846;6.614;2023-06-14T00:26:17;16.10;75.90
57088;DHT22;42965;52.846;6.614;2023-06-14T00:28:45;16.10;76.70
57088;DHT22;42965;52.846;6.614;2023-06-14T00:31:12;16.10;78.00
57088;DHT22;42965;52.846;6.614;2023-06-14T00:33:45;16.00;78.70
57088;DHT22;42965;52.846;6.614;2023-06-14T00:36:12;16.00;80.40
57088;DHT22;42965;52.846;6.614;2023-06-14T00:38:39;16.00;81.20
57088;DHT22;42965;52.846;6.614;2023-06-14T00:41:05;15.90;83.20
57088;DHT22;42965;52.846;6.614;2023-06-14T00:43:35;15.80;84.50
57088;DHT22;42965;52.846;6.614;2023-06-14T00:46:23;15.80;86.60
57088;DHT22;42965;52.846;6.614;2023-06-14T00:48:51;15.70;87.90
57088;DHT22;42965;52.846;6.614;2023-06-14T00:51:24;15.70;89.50
57088;DHT22;42965;52.846;6.614;2023-06-14T00:54:00;15.70;90.00
57088;DHT22;42965;52.846;6.614;2023-06-14T00:56:27;15.70;91.10
57088;DHT22;42965;52.846;6.614;2023-06-14T00:58:55;15.60;91.50
57088;DHT22;42965;52.846;6.614;2023-06-14T01:01:22;15.60;92.50
57088;DHT22;42965;52.846;6.614;2023-06-14T01:03:51;15.60;93.00
57088;DHT22;42965;52.846;6.614;2023-06-14T01:06:37;15.50;93.90
57088;DHT22;42965;52.846;6.614;2023-06-14T01:09:18;15.50;94.70
57088;DHT22;42965;52.846;6.614;2023-06-14T01:12:03;15.50;95.60
57088;DHT22;42965;52.846;6.614;2023-06-14T01:14:47;15.50;95.50
57088;DHT22;42965;52.846;6.614;2023-06-14T01:17:14;15.40;96.20
57088;DHT22;42965;52.846;6.614;2023-06-14T01:19:45;15.40;97.00
57088;DHT22;42965;52.846;6.614;2023-06-14T01:22:14;15.40;97.60
57088;DHT22;42965;52.846;6.614;2023-06-14T01:24:44;15.30;98.30
57088;DHT22;42965;52.846;6.614;2023-06-14T01:27:13;15.30;98.90
57088;DHT22;42965;52.846;6.614;2023-06-14T01:29:43;15.30;99.60
57088;DHT22;42965;52.846;6.614;2023-06-14T01:32:24;15.30;99.90
57088;DHT22;42965;52.846;6.614;2023-06-14T01:34:53;15.20;99.90
57088;DHT22;42965;52.846;6.614;2023-06-14T01:37:21;15.10;99.90
57088;DHT22;42965;52.846;6.614;2023-06-14T01:39:52;15.10;99.90
57088;DHT22;42965;52.846;6.614;2023-06-14T01:42:22;15.10;99.90
57088;DHT22;42965;52.846;6.614;2023-06-14T01:44:52;15.00;99.90
57088;DHT22;42965;52.846;6.614;2023-06-14T01:47:23;15.00;99.90
57088;DHT22;42965;52.846;6.614;2023-06-14T01:49:51;14.90;99.90
57088;DHT22;42965;52.846;6.614;2023-06-14T01:52:18;15.00;99.90
57088;DHT22;42965;52.846;6.614;2023-06-14T01:54:47;15.00;99.90
57088;DHT22;42965;52.846;6.614;2023-06-14T01:57:17;14.90;99.90
57088;DHT22;42965;52.846;6.614;2023-06-14T01:59:44;14.90;99.90
57088;DHT22;42965;52.846;6.614;2023-06-14T02:02:15;14.80;99.90
57088;DHT22;42965;52.846;6.614;2023-06-14T02:04:42;14.80;99.90
57088;DHT22;42965;52.846;6.614;2023-06-14T02:07:09;14.80;99.90
57088;DHT22;42965;52.846;6.614;2023-06-14T02:09:36;14.80;99.90
57088;DHT22;42965;52.846;6.614;2023-06-14T02:12:03;14.80;99.90
57088;DHT22;42965;52.846;6.614;2023-06-14T02:14:32;14.80;99.90
57088;DHT22;42965;52.846;6.614;2023-06-14T02:17:06;14.70;99.90
57088;DHT22;42965;52.846;6.614;2023-06-14T02:19:32;14.70;99.90
57088;DHT22;42965;52.846;6.614;2023-06-14T02:21:59;14.60;99.90
57088;DHT22;42965;52.846;6.614;2023-06-14T02:24:29;14.60;99.90
57088;DHT22;42965;52.846;6.614;2023-06-14T02:26:56;14.60;99.90
57088;DHT22;42965;52.846;6.614;2023-06-14T02:29:22;14.60;99.90
57088;DHT22;42965;52.846;6.614;2023-06-14T02:31:52;14.50;99.90
57088;DHT22;42965;52.846;6.614;2023-06-14T02:34:21;14.50;99.90
57088;DHT22;42965;52.846;6.614;2023-06-14T02:36:48;14.50;99.90
57088;DHT22;42965;52.846;6.614;2023-06-14T02:39:16;14.50;99.90
57088;DHT22;42965;52.846;6.614;2023-06-14T02:41:44;14.40;99.90
57088;DHT22;42965;52.846;6.614;2023-06-14T02:44:13;14.40;99.90
57088;DHT22;42965;52.846;6.614;2023-06-14T02:46:41;14.40;99.90
57088;DHT22;42965;52.846;6.614;2023-06-14T02:49:11;14.40;99.90
57088;DHT22;42965;52.846;6.614;2023-06-14T02:51:38;14.30;99.90
57088;DHT22;42965;52.846;6.614;2023-06-14T02:54:05;14.20;99.90
57088;DHT22;42965;52.846;6.614;2023-06-14T02:56:40;14.30;99.90
57088;DHT22;42965;52.846;6.614;2023-06-14T02:59:11;14.20;99.90
57088;DHT22;42965;52.846;6.614;2023-06-14T03:01:39;14.20;99.90
57088;DHT22;42965;52.846;6.614;2023-06-14T03:04:23;14.20;99.90
57088;DHT22;42965;52.846;6.614;2023-06-14T03:06:53;14.20;99.90
57088;DHT22;42965;52.846;6.614;2023-06-14T03:09:22;14.20;99.90
57088;DHT22;42965;52.846;6.614;2023-06-14T03:11:49;14.10;99.90
57088;DHT22;42965;52.846;6.614;2023-06-14T03:14:17;14.20;99.90
57088;DHT22;42965;52.846;6.614;2023-06-14T03:16:51;14.10;99.90
57088;DHT22;42965;52.846;6.614;2023-06-14T03:19:26;14.20;99.90
57088;DHT22;42965;52.846;6.614;2023-06-14T03:21:54;14.10;99.90
57088;DHT22;42965;52.846;6.614;2023-06-14T03:24:25;14.10;99.90
57088;DHT22;42965;52.846;6.614;2023-06-14T03:27:18;14.10;99.90
57088;DHT22;42965;52.846;6.614;2023-06-14T03:30:09;14.10;99.90
57088;DHT22;42965;52.846;6.614;2023-06-14T03:32:58;14.10;99.90
57088;DHT22;42965;52.846;6.614;2023-06-14T03:35:47;14.10;99.90
57088;DHT22;42965;52.846;6.614;2023-06-14T03:38:34;14.10;99.90
57088;DHT22;42965;52.846;6.614;2023-06-14T03:41:22;14.10;99.90
57088;DHT22;42965;52.846;6.614;2023-06-14T03:44:17;14.10;99.90
57088;DHT22;42965;52.846;6.614;2023-06-14T03:47:05;14.10;99.90
57088;DHT22;42965;52.846;6.614;2023-06-14T03:49:39;14.20;99.90
57088;DHT22;42965;52.846;6.614;2023-06-14T03:52:25;14.00;99.90
57088;DHT22;42965;52.846;6.614;2023-06-14T03:55:12;14.10;99.90
57088;DHT22;42965;52.846;6.614;2023-06-14T03:57:40;14.10;99.90
57088;DHT22;42965;52.846;6.614;2023-06-14T04:00:10;14.10;99.90
57088;DHT22;42965;52.846;6.614;2023-06-14T04:02:41;14.10;99.90
57088;DHT22;42965;52.846;6.614;2023-06-14T04:05:10;14.10;99.90
57088;DHT22;42965;52.846;6.614;2023-06-14T04:07:38;14.10;99.90
57088;DHT22;42965;52.846;6.614;2023-06-14T04:10:15;14.10;99.90
57088;DHT22;42965;52.846;6.614;2023-06-14T04:12:53;14.10;99.90
57088;DHT22;42965;52.846;6.614;2023-06-14T04:15:23;14.10;99.90
57088;DHT22;42965;52.846;6.614;2023-06-14T04:17:53;14.10;99.90
57088;DHT22;42965;52.846;6.614;2023-06-14T04:20:23;14.20;99.90
57088;DHT22;42965;52.846;6.614;2023-06-14T04:22:51;14.20;99.90
57088;DHT22;42965;52.846;6.614;2023-06-14T04:25:20;14.20;99.90
57088;DHT22;42965;52.846;6.614;2023-06-14T04:27:48;14.20;99.90
57088;DHT22;42965;52.846;6.614;2023-06-14T04:30:20;14.30;99.90
57088;DHT22;42965;52.846;6.614;2023-06-14T04:32:52;14.30;99.90
57088;DHT22;42965;52.846;6.614;2023-06-14T04:35:21;14.30;99.90
57088;DHT22;42965;52.846;6.614;2023-06-14T04:37:51;14.40;99.90
57088;DHT22;42965;52.846;6.614;2023-06-14T04:40:21;14.40;99.90
57088;DHT22;42965;52.846;6.614;2023-06-14T04:42:48;14.50;99.90
57088;DHT22;42965;52.846;6.614;2023-06-14T04:45:19;14.60;99.90
57088;DHT22;42965;52.846;6.614;2023-06-14T04:47:47;14.60;99.90
57088;DHT22;42965;52.846;6.614;2023-06-14T04:50:14;14.70;99.90
57088;DHT22;42965;52.846;6.614;2023-06-14T04:52:44;14.80;99.90
57088;DHT22;42965;52.846;6.614;2023-06-14T04:55:12;14.80;99.90
57088;DHT22;42965;52.846;6.614;2023-06-14T04:57:40;14.90;99.90
57088;DHT22;42965;52.846;6.614;2023-06-14T05:00:09;15.00;99.90
57088;DHT22;42965;52.846;6.614;2023-06-14T05:02:38;15.00;99.90
57088;DHT22;42965;52.846;6.614;2023-06-14T05:05:06;15.10;99.90
57088;DHT22;42965;52.846;6.614;2023-06-14T05:07:34;15.20;99.90
57088;DHT22;42965;52.846;6.614;2023-06-14T05:10:02;15.60;99.90
57088;DHT22;42965;52.846;6.614;2023-06-14T05:12:29;16.00;99.90
57088;DHT22;42965;52.846;6.614;2023-06-14T05:14:56;16.20;99.90
57088;DHT22;42965;52.846;6.614;2023-06-14T05:17:25;16.50;99.90
57088;DHT22;42965;52.846;6.614;2023-06-14T05:19:55;16.80;99.90
57088;DHT22;42965;52.846;6.614;2023-06-14T05:22:25;17.00;99.90
57088;DHT22;42965;52.846;6.614;2023-06-14T05:24:52;17.30;99.90
57088;DHT22;42965;52.846;6.614;2023-06-14T05:27:22;17.40;99.90
57088;DHT22;42965;52.846;6.614;2023-06-14T05:29:51;17.70;99.90
57088;DHT22;42965;52.846;6.614;2023-06-14T05:32:22;17.80;99.90
57088;DHT22;42965;52.846;6.614;2023-06-14T05:34:53;18.00;99.90
57088;DHT22;42965;52.846;6.614;2023-06-14T05:37:20;18.30;99.90
57088;DHT22;42965;52.846;6.614;2023-06-14T05:39:47;18.40;99.90
57088;DHT22;42965;52.846;6.614;2023-06-14T05:42:24;18.50;99.90
57088;DHT22;42965;52.846;6.614;2023-06-14T05:44:51;18.60;99.90
57088;DHT22;42965;52.846;6.614;2023-06-14T05:47:18;18.70;99.90
57088;DHT22;42965;52.846;6.614;2023-06-14T05:49:46;18.90;99.90
57088;DHT22;42965;52.846;6.614;2023-06-14T05:52:13;19.00;99.90
57088;DHT22;42965;52.846;6.614;2023-06-14T05:54:40;19.20;99.90
57088;DHT22;42965;52.846;6.614;2023-06-14T05:57:07;19.30;99.90
57088;DHT22;42965;52.846;6.614;2023-06-14T05:59:34;19.40;99.90
57088;DHT22;42965;52.846;6.614;2023-06-14T06:02:00;19.50;99.90
57088;DHT22;42965;52.846;6.614;2023-06-14T06:04:27;19.70;99.90
57088;DHT22;42965;52.846;6.614;2023-06-14T06:06:55;19.70;99.90
57088;DHT22;42965;52.846;6.614;2023-06-14T06:09:22;19.90;99.90
57088;DHT22;42965;52.846;6.614;2023-06-14T06:11:48;19.90;99.90
57088;DHT22;42965;52.846;6.614;2023-06-14T06:14:15;20.10;99.90
57088;DHT22;42965;52.846;6.614;2023-06-14T06:16:41;20.00;99.90
57088;DHT22;42965;52.846;6.614;2023-06-14T06:19:07;20.10;99.90
57088;DHT22;42965;52.846;6.614;2023-06-14T06:21:33;20.20;99.90
57088;DHT22;42965;52.846;6.614;2023-06-14T06:24:04;20.10;99.90
57088;DHT22;42965;52.846;6.614;2023-06-14T06:26:32;20.40;99.90
57088;DHT22;42965;52.846;6.614;2023-06-14T06:28:59;20.50;99.80
57088;DHT22;42965;52.846;6.614;2023-06-14T06:31:25;20.70;99.50
57088;DHT22;42965;52.846;6.614;2023-06-14T06:33:54;20.90;98.60
57088;DHT22;42965;52.846;6.614;2023-06-14T06:36:21;21.00;98.00
57088;DHT22;42965;52.846;6.614;2023-06-14T06:38:49;21.20;97.00
57088;DHT22;42965;52.846;6.614;2023-06-14T06:41:16;21.40;96.20
57088;DHT22;42965;52.846;6.614;2023-06-14T06:43:43;21.50;95.50
57088;DHT22;42965;52.846;6.614;2023-06-14T06:46:11;21.60;94.40
57088;DHT22;42965;52.846;6.614;2023-06-14T06:48:39;21.40;93.70
57088;DHT22;42965;52.846;6.614;2023-06-14T06:51:07;21.60;93.10
57088;DHT22;42965;52.846;6.614;2023-06-14T06:53:33;21.80;92.00
57088;DHT22;42965;52.846;6.614;2023-06-14T06:55:59;21.80;91.20
57088;DHT22;42965;52.846;6.614;2023-06-14T06:58:29;21.90;91.00
57088;DHT22;42965;52.846;6.614;2023-06-14T07:00:55;22.10;90.40
57088;DHT22;42965;52.846;6.614;2023-06-14T07:03:22;22.30;89.60
57088;DHT22;42965;52.846;6.614;2023-06-14T07:05:49;22.10;86.90
57088;DHT22;42965;52.846;6.614;2023-06-14T07:08:16;22.20;86.30
57088;DHT22;42965;52.846;6.614;2023-06-14T07:10:43;22.60;85.70
57088;DHT22;42965;52.846;6.614;2023-06-14T07:13:09;23.00;86.00
57088;DHT22;42965;52.846;6.614;2023-06-14T07:15:36;22.70;80.50
57088;DHT22;42965;52.846;6.614;2023-06-14T07:18:02;22.80;76.90
57088;DHT22;42965;52.846;6.614;2023-06-14T07:20:28;22.70;76.30
57088;DHT22;42965;52.846;6.614;2023-06-14T07:22:57;22.80;75.40
57088;DHT22;42965;52.846;6.614;2023-06-14T07:25:23;23.00;75.60
57088;DHT22;42965;52.846;6.614;2023-06-14T07:27:54;23.10;73.90
57088;DHT22;42965;52.846;6.614;2023-06-14T07:30:21;23.30;72.30
57088;DHT22;42965;52.846;6.614;2023-06-14T07:32:53;23.50;72.70
57088;DHT22;42965;52.846;6.614;2023-06-14T07:35:19;23.40;71.20
57088;DHT22;42965;52.846;6.614;2023-06-14T07:37:46;23.40;69.10
57088;DHT22;42965;52.846;6.614;2023-06-14T07:40:13;23.50;69.00
57088;DHT22;42965;52.846;6.614;2023-06-14T07:42:39;23.60;68.70
57088;DHT22;42965;52.846;6.614;2023-06-14T07:45:06;23.50;67.80
57088;DHT22;42965;52.846;6.614;2023-06-14T07:47:33;23.60;67.50
57088;DHT22;42965;52.846;6.614;2023-06-14T07:50:01;23.80;67.30
57088;DHT22;42965;52.846;6.614;2023-06-14T07:52:28;24.00;65.80
57088;DHT22;42965;52.846;6.614;2023-06-14T07:54:55;24.00;65.00
57088;DHT22;42965;52.846;6.614;2023-06-14T07:57:22;24.10;63.80
57088;DHT22;42965;52.846;6.614;2023-06-14T07:59:52;24.30;63.30
57088;DHT22;42965;52.846;6.614;2023-06-14T08:02:19;24.50;61.40
57088;DHT22;42965;52.846;6.614;2023-06-14T08:04:45;24.40;61.60
57088;DHT22;42965;52.846;6.614;2023-06-14T08:07:20;24.10;61.40
57088;DHT22;42965;52.846;6.614;2023-06-14T08:09:47;24.20;62.90
57088;DHT22;42965;52.846;6.614;2023-06-14T08:12:13;24.40;61.10
57088;DHT22;42965;52.846;6.614;2023-06-14T08:14:40;24.70;60.90
57088;DHT22;42965;52.846;6.614;2023-06-14T08:17:06;24.50;59.90
57088;DHT22;42965;52.846;6.614;2023-06-14T08:19:32;24.80;60.10
57088;DHT22;42965;52.846;6.614;2023-06-14T08:21:58;24.80;58.40
57088;DHT22;42965;52.846;6.614;2023-06-14T08:24:28;24.70;58.20
57088;DHT22;42965;52.846;6.614;2023-06-14T08:26:55;25.30;58.50
57088;DHT22;42965;52.846;6.614;2023-06-14T08:29:27;25.50;56.60
57088;DHT22;42965;52.846;6.614;2023-06-14T08:31:55;25.90;55.70
57088;DHT22;42965;52.846;6.614;2023-06-14T09:32:18;27.90;47.00
57088;DHT22;42965;52.846;6.614;2023-06-14T09:34:46;27.80;46.00
57088;DHT22;42965;52.846;6.614;2023-06-14T09:37:13;27.90;46.60
57088;DHT22;42965;52.846;6.614;2023-06-14T09:39:52;28.10;45.50
57088;DHT22;42965;52.846;6.614;2023-06-14T09:42:19;28.30;45.80
57088;DHT22;42965;52.846;6.614;2023-06-14T09:44:47;28.30;45.30
57088;DHT22;42965;52.846;6.614;2023-06-14T09:47:16;28.10;44.10
57088;DHT22;42965;52.846;6.614;2023-06-14T09:49:42;28.10;43.90
57088;DHT22;42965;52.846;6.614;2023-06-14T09:52:19;27.90;43.90
57088;DHT22;42965;52.846;6.614;2023-06-14T09:54:48;28.10;44.90
57088;DHT22;42965;52.846;6.614;2023-06-14T09:57:17;27.90;44.20
57088;DHT22;42965;52.846;6.614;2023-06-14T09:59:47;27.70;44.00
57088;DHT22;42965;52.846;6.614;2023-06-14T10:02:31;28.10;44.40
57088;DHT22;42965;52.846;6.614;2023-06-14T10:05:06;28.60;43.90
57088;DHT22;42965;52.846;6.614;2023-06-14T10:07:44;28.50;44.20
57088;DHT22;42965;52.846;6.614;2023-06-14T10:10:14;28.70;44.10
57088;DHT22;42965;52.846;6.614;2023-06-14T10:12:43;28.40;43.40
57088;DHT22;42965;52.846;6.614;2023-06-14T10:15:17;28.60;43.90
57088;DHT22;42965;52.846;6.614;2023-06-14T10:17:56;28.30;42.60
57088;DHT22;42965;52.846;6.614;2023-06-14T10:20:49;28.30;43.40
57088;DHT22;42965;52.846;6.614;2023-06-14T10:23:23;28.90;42.30
57088;DHT22;42965;52.846;6.614;2023-06-14T10:25:53;28.90;41.90
57088;DHT22;42965;52.846;6.614;2023-06-14T10:28:22;28.80;41.20
57088;DHT22;42965;52.846;6.614;2023-06-14T10:31:10;29.00;41.40
57088;DHT22;42965;52.846;6.614;2023-06-14T10:33:55;29.20;40.50
57088;DHT22;42965;52.846;6.614;2023-06-14T10:36:26;28.70;39.60
57088;DHT22;42965;52.846;6.614;2023-06-14T10:39:14;28.90;41.10
57088;DHT22;42965;52.846;6.614;2023-06-14T10:41:41;29.10;41.70
57088;DHT22;42965;52.846;6.614;2023-06-14T10:46:46;29.40;39.50
57088;DHT22;42965;52.846;6.614;2023-06-14T10:49:19;29.10;39.80
57088;DHT22;42965;52.846;6.614;2023-06-14T10:51:49;29.00;39.40
57088;DHT22;42965;52.846;6.614;2023-06-14T10:54:16;28.60;40.10
57088;DHT22;42965;52.846;6.614;2023-06-14T10:56:47;29.50;40.50
57088;DHT22;42965;52.846;6.614;2023-06-14T10:59:17;29.50;40.10
57088;DHT22;42965;52.846;6.614;2023-06-14T11:04:51;29.30;39.30
57088;DHT22;42965;52.846;6.614;2023-06-14T11:12:48;29.30;40.20
57088;DHT22;42965;52.846;6.614;2023-06-14T11:15:18;29.50;40.10
57088;DHT22;42965;52.846;6.614;2023-06-14T11:17:57;29.90;39.50
57088;DHT22;42965;52.846;6.614;2023-06-14T11:20:30;29.40;38.90
57088;DHT22;42965;52.846;6.614;2023-06-14T11:22:57;29.10;39.70
57088;DHT22;42965;52.846;6.614;2023-06-14T11:25:25;29.10;39.60
57088;DHT22;42965;52.846;6.614;2023-06-14T11:27:52;29.20;39.80
57088;DHT22;42965;52.846;6.614;2023-06-14T11:30:21;29.10;39.10
57088;DHT22;42965;52.846;6.614;2023-06-14T11:32:52;29.00;39.10
57088;DHT22;42965;52.846;6.614;2023-06-14T11:35:22;29.20;40.10
57088;DHT22;42965;52.846;6.614;2023-06-14T11:37:54;29.60;39.60
57088;DHT22;42965;52.846;6.614;2023-06-14T11:40:25;29.50;40.10
57088;DHT22;42965;52.846;6.614;2023-06-14T11:43:01;28.80;38.90
57088;DHT22;42965;52.846;6.614;2023-06-14T11:45:29;28.90;39.50
57088;DHT22;42965;52.846;6.614;2023-06-14T11:47:57;29.10;39.80
57088;DHT22;42965;52.846;6.614;2023-06-14T11:50:24;28.90;39.80
57088;DHT22;42965;52.846;6.614;2023-06-14T11:52:59;28.60;39.50
57088;DHT22;42965;52.846;6.614;2023-06-14T11:55:38;28.80;39.70
57088;DHT22;42965;52.846;6.614;2023-06-14T11:58:06;29.00;39.70
57088;DHT22;42965;52.846;6.614;2023-06-14T12:00:36;29.70;40.00
57088;DHT22;42965;52.846;6.614;2023-06-14T12:03:06;29.70;39.50
57088;DHT22;42965;52.846;6.614;2023-06-14T12:05:34;29.20;39.20
57088;DHT22;42965;52.846;6.614;2023-06-14T12:08:02;28.90;39.60
57088;DHT22;42965;52.846;6.614;2023-06-14T12:10:40;28.80;39.60
57088;DHT22;42965;52.846;6.614;2023-06-14T12:13:08;29.00;40.10
57088;DHT22;42965;52.846;6.614;2023-06-14T12:15:35;29.50;40.30
57088;DHT22;42965;52.846;6.614;2023-06-14T12:18:01;29.10;39.50
57088;DHT22;42965;52.846;6.614;2023-06-14T12:20:32;29.50;40.20
57088;DHT22;42965;52.846;6.614;2023-06-14T12:22:59;29.90;39.60
57088;DHT22;42965;52.846;6.614;2023-06-14T12:25:35;29.70;39.60
57088;DHT22;42965;52.846;6.614;2023-06-14T12:28:07;29.90;39.10
57088;DHT22;42965;52.846;6.614;2023-06-14T12:30:37;30.20;39.40
57088;DHT22;42965;52.846;6.614;2023-06-14T12:33:04;29.80;39.10
57088;DHT22;42965;52.846;6.614;2023-06-14T12:35:31;30.20;39.10
57088;DHT22;42965;52.846;6.614;2023-06-14T12:37:58;29.40;38.70
57088;DHT22;42965;52.846;6.614;2023-06-14T12:40:25;29.90;39.00
57088;DHT22;42965;52.846;6.614;2023-06-14T12:42:52;29.30;38.80
57088;DHT22;42965;52.846;6.614;2023-06-14T12:45:18;29.50;38.60
57088;DHT22;42965;52.846;6.614;2023-06-14T12:47:47;30.00;38.70
57088;DHT22;42965;52.846;6.614;2023-06-14T12:50:13;30.30;39.10
57088;DHT22;42965;52.846;6.614;2023-06-14T12:52:41;29.80;38.40
57088;DHT22;42965;52.846;6.614;2023-06-14T12:55:08;29.60;38.40
57088;DHT22;42965;52.846;6.614;2023-06-14T12:57:35;29.20;38.60
57088;DHT22;42965;52.846;6.614;2023-06-14T13:00:03;29.90;39.40
57088;DHT22;42965;52.846;6.614;2023-06-14T13:02:31;29.90;38.80
57088;DHT22;42965;52.846;6.614;2023-06-14T13:04:57;29.80;38.60
57088;DHT22;42965;52.846;6.614;2023-06-14T13:07:24;30.10;38.80
57088;DHT22;42965;52.846;6.614;2023-06-14T13:09:51;29.90;39.10
57088;DHT22;42965;52.846;6.614;2023-06-14T13:12:17;30.50;39.10
57088;DHT22;42965;52.846;6.614;2023-06-14T13:14:43;30.90;38.70
57088;DHT22;42965;52.846;6.614;2023-06-14T13:17:13;31.00;38.90
57088;DHT22;42965;52.846;6.614;2023-06-14T13:19:39;31.10;37.90
57088;DHT22;42965;52.846;6.614;2023-06-14T13:22:07;31.00;37.50
57088;DHT22;42965;52.846;6.614;2023-06-14T13:24:36;30.90;38.00
57088;DHT22;42965;52.846;6.614;2023-06-14T13:27:03;30.80;37.90
57088;DHT22;42965;52.846;6.614;2023-06-14T13:29:30;30.70;37.20
57088;DHT22;42965;52.846;6.614;2023-06-14T13:31:57;30.60;37.00
57088;DHT22;42965;52.846;6.614;2023-06-14T13:34:23;30.80;37.30
57088;DHT22;42965;52.846;6.614;2023-06-14T13:36:49;30.50;37.20
57088;DHT22;42965;52.846;6.614;2023-06-14T13:39:19;30.70;37.90
57088;DHT22;42965;52.846;6.614;2023-06-14T13:41:46;30.50;37.40
57088;DHT22;42965;52.846;6.614;2023-06-14T13:44:12;30.60;37.40
57088;DHT22;42965;52.846;6.614;2023-06-14T13:46:41;31.00;37.90
57088;DHT22;42965;52.846;6.614;2023-06-14T13:49:09;30.90;37.30
57088;DHT22;42965;52.846;6.614;2023-06-14T13:51:36;31.40;38.00
57088;DHT22;42965;52.846;6.614;2023-06-14T13:54:02;31.30;37.50
57088;DHT22;42965;52.846;6.614;2023-06-14T13:56:28;31.10;37.50
57088;DHT22;42965;52.846;6.614;2023-06-14T13:58:56;30.90;37.50
57088;DHT22;42965;52.846;6.614;2023-06-14T14:01:22;30.60;37.20
57088;DHT22;42965;52.846;6.614;2023-06-14T14:03:49;30.60;38.20
57088;DHT22;42965;52.846;6.614;2023-06-14T14:06:16;31.00;38.10
57088;DHT22;42965;52.846;6.614;2023-06-14T14:08:46;30.80;37.50
57088;DHT22;42965;52.846;6.614;2023-06-14T14:11:13;31.10;37.50
57088;DHT22;42965;52.846;6.614;2023-06-14T14:13:41;31.50;37.30
57088;DHT22;42965;52.846;6.614;2023-06-14T14:16:08;30.80;36.50
57088;DHT22;42965;52.846;6.614;2023-06-14T14:18:36;31.00;37.20
57088;DHT22;42965;52.846;6.614;2023-06-14T14:21:04;31.20;37.20
57088;DHT22;42965;52.846;6.614;2023-06-14T14:23:30;30.90;36.60
57088;DHT22;42965;52.846;6.614;2023-06-14T14:25:56;30.50;37.20
57088;DHT22;42965;52.846;6.614;2023-06-14T14:28:23;30.50;37.40
57088;DHT22;42965;52.846;6.614;2023-06-14T14:30:49;30.50;37.10
57088;DHT22;42965;52.846;6.614;2023-06-14T14:33:18;30.80;37.30
57088;DHT22;42965;52.846;6.614;2023-06-14T14:35:45;30.50;37.30
57088;DHT22;42965;52.846;6.614;2023-06-14T14:38:14;30.40;37.70
57088;DHT22;42965;52.846;6.614;2023-06-14T14:40:44;30.90;37.60
57088;DHT22;42965;52.846;6.614;2023-06-14T14:43:11;30.80;37.40
57088;DHT22;42965;52.846;6.614;2023-06-14T14:45:38;30.80;36.80
57088;DHT22;42965;52.846;6.614;2023-06-14T14:48:05;30.60;37.80
57088;DHT22;42965;52.846;6.614;2023-06-14T14:50:32;30.40;37.70
57088;DHT22;42965;52.846;6.614;2023-06-14T14:52:58;29.60;38.30
57088;DHT22;42965;52.846;6.614;2023-06-14T14:55:24;29.20;38.90
57088;DHT22;42965;52.846;6.614;2023-06-14T14:57:51;28.80;38.90
57088;DHT22;42965;52.846;6.614;2023-06-14T15:00:18;29.10;40.00
57088;DHT22;42965;52.846;6.614;2023-06-14T15:02:44;28.60;40.30
57088;DHT22;42965;52.846;6.614;2023-06-14T15:05:10;28.20;40.10
57088;DHT22;42965;52.846;6.614;2023-06-14T15:07:37;28.10;40.00
57088;DHT22;42965;52.846;6.614;2023-06-14T15:10:06;28.20;40.20
57088;DHT22;42965;52.846;6.614;2023-06-14T15:12:34;28.00;40.80
57088;DHT22;42965;52.846;6.614;2023-06-14T15:15:01;27.90;41.70
57088;DHT22;42965;52.846;6.614;2023-06-14T15:17:29;27.70;41.40
57088;DHT22;42965;52.846;6.614;2023-06-14T15:19:56;27.90;41.30
57088;DHT22;42965;52.846;6.614;2023-06-14T15:22:22;28.00;40.90
57088;DHT22;42965;52.846;6.614;2023-06-14T15:24:48;27.90;40.50
57088;DHT22;42965;52.846;6.614;2023-06-14T15:27:14;27.70;40.70
57088;DHT22;42965;52.846;6.614;2023-06-14T15:29:41;27.70;40.90
57088;DHT22;42965;52.846;6.614;2023-06-14T15:32:08;27.60;40.80
57088;DHT22;42965;52.846;6.614;2023-06-14T15:34:35;27.60;40.90
57088;DHT22;42965;52.846;6.614;2023-06-14T15:37:03;27.60;41.70
57088;DHT22;42965;52.846;6.614;2023-06-14T15:39:30;27.60;40.40
57088;DHT22;42965;52.846;6.614;2023-06-14T15:42:00;27.30;40.30
57088;DHT22;42965;52.846;6.614;2023-06-14T15:44:26;27.30;39.80
57088;DHT22;42965;52.846;6.614;2023-06-14T15:46:53;27.30;40.40
57088;DHT22;42965;52.846;6.614;2023-06-14T15:49:19;27.20;40.80
57088;DHT22;42965;52.846;6.614;2023-06-14T15:51:45;27.10;41.00
57088;DHT22;42965;52.846;6.614;2023-06-14T15:54:12;27.00;41.00
57088;DHT22;42965;52.846;6.614;2023-06-14T15:56:38;27.00;41.10
57088;DHT22;42965;52.846;6.614;2023-06-14T15:59:04;27.10;41.50
57088;DHT22;42965;52.846;6.614;2023-06-14T16:01:33;27.20;41.50
57088;DHT22;42965;52.846;6.614;2023-06-14T16:04:00;27.10;40.90
57088;DHT22;42965;52.846;6.614;2023-06-14T16:06:28;27.10;40.90
57088;DHT22;42965;52.846;6.614;2023-06-14T16:08:54;27.10;40.80
57088;DHT22;42965;52.846;6.614;2023-06-14T16:11:21;27.20;40.90
57088;DHT22;42965;52.846;6.614;2023-06-14T16:13:49;27.20;40.90
57088;DHT22;42965;52.846;6.614;2023-06-14T16:16:16;27.10;40.70
57088;DHT22;42965;52.846;6.614;2023-06-14T16:18:45;27.00;40.80
57088;DHT22;42965;52.846;6.614;2023-06-14T16:21:12;27.10;41.10
57088;DHT22;42965;52.846;6.614;2023-06-14T16:23:39;27.30;41.20
57088;DHT22;42965;52.846;6.614;2023-06-14T16:26:10;27.40;41.30
57088;DHT22;42965;52.846;6.614;2023-06-14T16:28:39;27.30;41.30
57088;DHT22;42965;52.846;6.614;2023-06-14T16:31:09;27.00;39.80
57088;DHT22;42965;52.846;6.614;2023-06-14T16:33:38;26.70;41.60
57088;DHT22;42965;52.846;6.614;2023-06-14T16:36:08;26.50;41.70
57088;DHT22;42965;52.846;6.614;2023-06-14T16:38:35;26.30;41.60
57088;DHT22;42965;52.846;6.614;2023-06-14T16:41:02;26.20;41.90
57088;DHT22;42965;52.846;6.614;2023-06-14T16:43:30;26.10;42.10
57088;DHT22;42965;52.846;6.614;2023-06-14T16:46:06;26.20;42.30
57088;DHT22;42965;52.846;6.614;2023-06-14T16:48:35;26.30;42.60
57088;DHT22;42965;52.846;6.614;2023-06-14T16:51:01;26.30;42.20
57088;DHT22;42965;52.846;6.614;2023-06-14T16:53:32;26.40;42.50